createdAt,value
2018-07-21T00:00:55.370Z,20.66
2018-07-21T00:01:55.379Z,20.66
2018-07-21T00:02:55.344Z,20.66
2018-07-21T00:03:55.337Z,20.69
2018-07-21T00:04:55.279Z,20.63
2018-07-21T00:05:55.312Z,20.68
2018-07-21T00:06:55.453Z,20.58
2018-07-21T00:07:55.289Z,20.63
2018-07-21T00:08:55.277Z,20.71
2018-07-21T00:09:55.268Z,20.61
2018-07-21T00:10:55.272Z,20.58
2018-07-21T00:11:55.229Z,20.46
2018-07-21T00:12:55.196Z,20.42
2018-07-21T00:13:55.235Z,20.46
2018-07-21T00:14:55.213Z,20.41
2018-07-21T00:15:55.155Z,20.34
2018-07-21T00:16:55.386Z,20.30
2018-07-21T00:17:55.180Z,20.31
2018-07-21T00:18:55.193Z,20.31
2018-07-21T00:19:55.154Z,20.26
2018-07-21T00:20:55.148Z,20.17
2018-07-21T00:21:55.167Z,20.19
2018-07-21T00:22:55.084Z,20.17
2018-07-21T00:23:55.110Z,20.25
2018-07-21T00:24:55.103Z,20.08
2018-07-21T00:25:55.103Z,20.10
2018-07-21T00:26:55.132Z,20.12
2018-07-21T00:27:55.068Z,20.13
2018-07-21T00:28:55.014Z,19.95
2018-07-21T00:29:55.048Z,20.00
2018-07-21T00:30:55.046Z,20.07
2018-07-21T00:31:55.092Z,20.02
2018-07-21T00:32:55.024Z,20.01
2018-07-21T00:33:54.975Z,19.87
2018-07-21T00:34:54.999Z,19.92
2018-07-21T00:35:54.987Z,19.92
2018-07-21T00:36:55.000Z,19.86
2018-07-21T00:37:54.968Z,19.90
2018-07-21T00:38:54.910Z,19.94
2018-07-21T00:39:54.939Z,19.90
2018-07-21T00:40:54.932Z,19.87
2018-07-21T00:41:54.942Z,19.85
2018-07-21T00:42:54.865Z,19.79
2018-07-21T00:43:54.910Z,19.78
2018-07-21T00:44:54.887Z,19.79
2018-07-21T00:45:54.881Z,19.80
2018-07-21T00:46:54.890Z,19.75
2018-07-21T00:47:54.852Z,19.78
2018-07-21T00:48:54.843Z,19.80
2018-07-21T00:49:54.833Z,19.80
2018-07-21T00:50:54.823Z,19.78
2018-07-21T00:51:54.849Z,19.71
2018-07-21T00:52:54.807Z,19.70
2018-07-21T00:53:54.746Z,19.70
2018-07-21T00:54:54.778Z,19.71
2018-07-21T00:55:54.781Z,19.62
2018-07-21T00:56:54.735Z,19.62
2018-07-21T00:57:54.744Z,19.67
2018-07-21T00:58:54.737Z,19.64
2018-07-21T00:59:54.732Z,19.62
2018-07-21T01:00:54.715Z,19.60
2018-07-21T01:01:54.731Z,19.60
2018-07-21T01:02:54.689Z,19.53
2018-07-21T01:03:54.680Z,19.60
2018-07-21T01:04:54.668Z,19.55
2018-07-21T01:05:54.765Z,19.50
2018-07-21T01:06:54.676Z,19.52
2018-07-21T01:07:54.660Z,19.62
2018-07-21T01:08:54.624Z,19.53
2018-07-21T01:09:54.622Z,19.52
2018-07-21T01:10:54.615Z,19.55
2018-07-21T01:11:54.763Z,19.47
2018-07-21T01:12:54.586Z,19.46
2018-07-21T01:13:54.570Z,19.47
2018-07-21T01:14:54.571Z,19.50
2018-07-21T01:15:54.567Z,19.40
2018-07-21T01:16:54.580Z,19.47
2018-07-21T01:17:54.533Z,19.34
2018-07-21T01:18:54.510Z,19.38
2018-07-21T01:19:54.519Z,19.35
2018-07-21T01:20:54.504Z,19.30
2018-07-21T01:21:54.436Z,19.34
2018-07-21T01:22:54.500Z,19.25
2018-07-21T01:23:54.430Z,19.25
2018-07-21T01:24:54.458Z,19.24
2018-07-21T01:25:54.446Z,19.24
2018-07-21T01:26:54.433Z,19.15
2018-07-21T01:27:54.416Z,19.21
2018-07-21T01:28:54.418Z,19.21
2018-07-21T01:29:54.407Z,19.23
2018-07-21T01:30:54.390Z,19.21
2018-07-21T01:31:54.381Z,19.21
2018-07-21T01:32:54.398Z,19.25
2018-07-21T01:33:54.358Z,19.23
2018-07-21T01:34:54.346Z,19.13
2018-07-21T01:35:54.292Z,19.13
2018-07-21T01:36:54.321Z,19.20
2018-07-21T01:37:54.340Z,19.23
2018-07-21T01:38:54.314Z,19.28
2018-07-21T01:39:54.286Z,19.20
2018-07-21T01:40:54.247Z,19.23
2018-07-21T01:41:54.270Z,19.13
2018-07-21T01:42:54.235Z,19.23
2018-07-21T01:43:54.204Z,19.24
2018-07-21T01:44:54.240Z,19.17
2018-07-21T01:45:54.229Z,19.27
2018-07-21T01:46:54.220Z,19.21
2018-07-21T01:47:54.186Z,19.24
2018-07-21T01:48:54.156Z,19.27
2018-07-21T01:49:54.178Z,19.28
2018-07-21T01:50:54.169Z,19.24
2018-07-21T01:51:54.169Z,19.20
2018-07-21T01:52:54.178Z,19.23
2018-07-21T01:53:54.143Z,19.24
2018-07-21T01:54:54.127Z,19.21
2018-07-21T01:55:54.115Z,19.25
2018-07-21T01:56:54.110Z,19.21
2018-07-21T01:57:54.147Z,19.25
2018-07-21T01:58:54.085Z,19.27
2018-07-21T01:59:54.070Z,19.27
2018-07-21T02:00:54.060Z,19.21
2018-07-21T02:01:54.051Z,19.21
2018-07-21T02:02:54.031Z,19.27
2018-07-21T02:03:54.037Z,19.23
2018-07-21T02:04:54.019Z,19.20
2018-07-21T02:05:54.006Z,19.25
2018-07-21T02:06:53.996Z,19.20
2018-07-21T02:07:53.964Z,19.30
2018-07-21T02:08:54.066Z,19.25
2018-07-21T02:09:53.964Z,19.31
2018-07-21T02:10:53.955Z,19.20
2018-07-21T02:11:53.938Z,19.25
2018-07-21T02:12:53.955Z,19.27
2018-07-21T02:13:53.923Z,19.23
2018-07-21T02:14:53.871Z,19.21
2018-07-21T02:15:53.901Z,19.23
2018-07-21T02:16:53.891Z,19.21
2018-07-21T02:17:53.900Z,19.16
2018-07-21T02:18:53.874Z,19.23
2018-07-21T02:19:53.810Z,19.20
2018-07-21T02:20:53.846Z,19.13
2018-07-21T02:21:53.830Z,19.09
2018-07-21T02:22:53.856Z,19.10
2018-07-21T02:23:53.811Z,19.09
2018-07-21T02:24:53.807Z,19.12
2018-07-21T02:25:53.750Z,19.23
2018-07-21T02:26:53.776Z,19.13
2018-07-21T02:27:53.797Z,19.13
2018-07-21T02:28:53.772Z,19.05
2018-07-21T02:29:53.747Z,19.10
2018-07-21T02:30:53.741Z,19.23
2018-07-21T02:31:53.738Z,19.13
2018-07-21T02:32:53.745Z,19.16
2018-07-21T02:33:53.715Z,19.17
2018-07-21T02:34:53.692Z,19.20
2018-07-21T02:35:53.677Z,19.13
2018-07-21T02:36:53.671Z,19.06
2018-07-21T02:37:53.667Z,19.16
2018-07-21T02:38:53.637Z,19.17
2018-07-21T02:39:53.641Z,19.20
2018-07-21T02:40:53.632Z,19.15
2018-07-21T02:41:53.614Z,19.10
2018-07-21T02:42:53.562Z,19.17
2018-07-21T02:43:53.623Z,19.16
2018-07-21T02:44:53.585Z,19.06
2018-07-21T02:45:53.572Z,19.16
2018-07-21T02:46:53.569Z,19.16
2018-07-21T02:47:53.511Z,19.02
2018-07-21T02:48:53.556Z,19.12
2018-07-21T02:49:53.524Z,19.10
2018-07-21T02:50:53.517Z,19.12
2018-07-21T02:51:53.511Z,19.07
2018-07-21T02:52:53.491Z,19.16
2018-07-21T02:53:53.514Z,19.06
2018-07-21T02:54:53.469Z,19.05
2018-07-21T02:55:53.459Z,19.13
2018-07-21T02:56:53.447Z,19.06
2018-07-21T02:57:53.440Z,19.05
2018-07-21T02:58:53.450Z,19.06
2018-07-21T02:59:53.422Z,19.10
2018-07-21T03:00:53.418Z,19.13
2018-07-21T03:01:53.399Z,19.05
2018-07-21T03:02:53.380Z,19.07
2018-07-21T03:03:53.403Z,19.02
2018-07-21T03:04:53.315Z,18.99
2018-07-21T03:05:53.352Z,18.99
2018-07-21T03:06:53.338Z,19.05
2018-07-21T03:07:53.338Z,19.06
2018-07-21T03:08:53.354Z,19.05
2018-07-21T03:09:53.345Z,19.01
2018-07-21T03:10:53.255Z,19.07
2018-07-21T03:11:53.383Z,19.07
2018-07-21T03:12:53.272Z,19.02
2018-07-21T03:13:53.256Z,19.10
2018-07-21T03:14:53.258Z,19.02
2018-07-21T03:15:53.199Z,19.02
2018-07-21T03:16:53.247Z,18.99
2018-07-21T03:17:53.200Z,19.02
2018-07-21T03:18:53.197Z,19.02
2018-07-21T03:19:53.193Z,19.05
2018-07-21T03:20:53.189Z,19.06
2018-07-21T03:21:53.137Z,19.02
2018-07-21T03:22:53.133Z,19.02
2018-07-21T03:23:53.200Z,19.05
2018-07-21T03:24:53.148Z,19.01
2018-07-21T03:25:53.142Z,18.94
2018-07-21T03:26:53.123Z,18.90
2018-07-21T03:27:53.074Z,18.89
2018-07-21T03:28:53.132Z,18.87
2018-07-21T03:29:53.090Z,18.87
2018-07-21T03:30:53.122Z,18.86
2018-07-21T03:31:53.068Z,18.84
2018-07-21T03:32:53.059Z,18.83
2018-07-21T03:33:53.081Z,18.83
2018-07-21T03:34:53.033Z,18.84
2018-07-21T03:35:53.030Z,18.82
2018-07-21T03:36:53.016Z,18.82
2018-07-21T03:37:53.006Z,18.84
2018-07-21T03:38:53.019Z,18.86
2018-07-21T03:39:52.990Z,18.86
2018-07-21T03:40:52.970Z,18.71
2018-07-21T03:41:52.971Z,18.78
2018-07-21T03:42:52.948Z,18.75
2018-07-21T03:43:52.967Z,18.74
2018-07-21T03:44:52.897Z,18.71
2018-07-21T03:45:52.916Z,18.74
2018-07-21T03:46:52.904Z,18.78
2018-07-21T03:47:52.894Z,18.76
2018-07-21T03:48:52.880Z,18.84
2018-07-21T03:49:52.903Z,18.75
2018-07-21T03:50:52.814Z,18.76
2018-07-21T03:51:52.849Z,18.74
2018-07-21T03:52:52.843Z,18.75
2018-07-21T03:53:52.855Z,18.75
2018-07-21T03:54:52.855Z,18.75
2018-07-21T03:55:52.822Z,18.75
2018-07-21T03:56:52.800Z,18.65
2018-07-21T03:57:52.791Z,18.71
2018-07-21T03:58:52.777Z,18.74
2018-07-21T03:59:52.794Z,18.66
2018-07-21T04:00:52.749Z,18.66
2018-07-21T04:01:52.747Z,18.66
2018-07-21T04:02:52.733Z,18.66
2018-07-21T04:03:52.720Z,18.64
2018-07-21T04:04:52.697Z,18.51
2018-07-21T04:05:52.695Z,18.57
2018-07-21T04:06:52.641Z,18.57
2018-07-21T04:07:52.682Z,18.54
2018-07-21T04:08:52.667Z,18.56
2018-07-21T04:09:52.685Z,18.64
2018-07-21T04:10:52.600Z,18.56
2018-07-21T04:11:52.627Z,18.56
2018-07-21T04:12:52.616Z,18.59
2018-07-21T04:13:52.610Z,18.65
2018-07-21T04:14:52.730Z,18.71
2018-07-21T04:15:52.588Z,18.71
2018-07-21T04:16:52.534Z,18.71
2018-07-21T04:17:52.569Z,18.65
2018-07-21T04:18:52.559Z,18.78
2018-07-21T04:19:52.540Z,18.71
2018-07-21T04:20:52.504Z,18.72
2018-07-21T04:21:52.521Z,18.71
2018-07-21T04:22:52.508Z,18.75
2018-07-21T04:23:52.502Z,18.72
2018-07-21T04:24:52.550Z,18.75
2018-07-21T04:25:52.482Z,18.75
2018-07-21T04:26:52.466Z,18.75
2018-07-21T04:27:52.460Z,18.76
2018-07-21T04:28:52.457Z,18.74
2018-07-21T04:29:52.460Z,18.76
2018-07-21T04:30:52.425Z,18.78
2018-07-21T04:31:52.412Z,18.74
2018-07-21T04:32:52.409Z,18.74
2018-07-21T04:33:52.386Z,18.76
2018-07-21T04:34:52.412Z,18.76
2018-07-21T04:35:52.328Z,18.76
2018-07-21T04:36:52.317Z,18.76
2018-07-21T04:37:52.342Z,18.86
2018-07-21T04:38:52.331Z,18.84
2018-07-21T04:39:52.344Z,18.86
2018-07-21T04:40:52.319Z,18.87
2018-07-21T04:41:52.300Z,18.87
2018-07-21T04:42:52.290Z,18.87
2018-07-21T04:43:52.278Z,18.91
2018-07-21T04:44:52.299Z,18.87
2018-07-21T04:45:52.261Z,18.91
2018-07-21T04:46:52.261Z,18.99
2018-07-21T04:47:52.239Z,18.94
2018-07-21T04:48:52.225Z,18.99
2018-07-21T04:49:52.262Z,19.07
2018-07-21T04:50:52.204Z,19.06
2018-07-21T04:51:52.200Z,19.02
2018-07-21T04:52:52.143Z,18.97
2018-07-21T04:53:52.175Z,19.07
2018-07-21T04:54:52.188Z,19.09
2018-07-21T04:55:52.146Z,19.02
2018-07-21T04:56:52.139Z,19.06
2018-07-21T04:57:52.142Z,19.16
2018-07-21T04:58:52.126Z,19.10
2018-07-21T04:59:52.107Z,19.05
2018-07-21T05:00:52.172Z,19.07
2018-07-21T05:01:52.130Z,19.07
2018-07-21T05:02:52.078Z,18.96
2018-07-21T05:03:52.079Z,18.91
2018-07-21T05:04:52.053Z,18.94
2018-07-21T05:05:52.067Z,19.05
2018-07-21T05:06:52.038Z,18.96
2018-07-21T05:07:52.079Z,18.99
2018-07-21T05:08:51.966Z,19.02
2018-07-21T05:09:52.021Z,19.07
2018-07-21T05:10:52.014Z,19.06
2018-07-21T05:11:51.982Z,19.05
2018-07-21T05:12:51.966Z,19.06
2018-07-21T05:13:51.912Z,19.05
2018-07-21T05:14:51.958Z,19.05
2018-07-21T05:15:51.975Z,19.09
2018-07-21T05:16:51.966Z,19.12
2018-07-21T05:17:51.940Z,19.09
2018-07-21T05:18:51.893Z,19.12
2018-07-21T05:19:51.844Z,19.07
2018-07-21T05:20:52.024Z,19.16
2018-07-21T05:21:51.866Z,19.16
2018-07-21T05:22:51.860Z,19.21
2018-07-21T05:23:51.867Z,19.24
2018-07-21T05:24:51.832Z,19.23
2018-07-21T05:25:51.851Z,19.25
2018-07-21T05:26:51.817Z,19.23
2018-07-21T05:27:51.804Z,19.24
2018-07-21T05:28:51.789Z,19.23
2018-07-21T05:29:51.785Z,19.23
2018-07-21T05:30:51.798Z,19.24
2018-07-21T05:31:51.766Z,19.21
2018-07-21T05:32:51.750Z,19.27
2018-07-21T05:33:51.748Z,19.27
2018-07-21T05:34:51.731Z,19.27
2018-07-21T05:35:51.749Z,19.25
2018-07-21T05:36:51.789Z,19.27
2018-07-21T05:37:51.724Z,19.28
2018-07-21T05:38:51.683Z,19.34
2018-07-21T05:39:51.701Z,19.32
2018-07-21T05:40:51.698Z,19.30
2018-07-21T05:41:51.654Z,19.30
2018-07-21T05:42:51.654Z,19.31
2018-07-21T05:43:51.632Z,19.40
2018-07-21T05:44:51.616Z,19.35
2018-07-21T05:45:51.651Z,19.40
2018-07-21T05:46:51.574Z,19.39
2018-07-21T05:47:51.568Z,19.40
2018-07-21T05:48:51.593Z,19.43
2018-07-21T05:49:51.565Z,19.40
2018-07-21T05:50:51.562Z,19.38
2018-07-21T05:51:51.552Z,19.42
2018-07-21T05:52:51.530Z,19.45
2018-07-21T05:53:51.536Z,19.46
2018-07-21T05:54:51.530Z,19.52
2018-07-21T05:55:51.526Z,19.53
2018-07-21T05:56:51.492Z,19.67
2018-07-21T05:57:51.475Z,19.75
2018-07-21T05:58:51.469Z,19.83
2018-07-21T05:59:51.469Z,19.92
2018-07-21T06:00:51.485Z,19.87
2018-07-21T06:01:51.434Z,20.00
2018-07-21T06:02:51.522Z,19.98
2018-07-21T06:03:51.380Z,20.13
2018-07-21T06:04:51.418Z,20.12
2018-07-21T06:05:51.414Z,20.23
2018-07-21T06:06:51.479Z,20.30
2018-07-21T06:07:51.380Z,20.44
2018-07-21T06:08:51.359Z,20.44
2018-07-21T06:09:51.342Z,20.56
2018-07-21T06:10:51.457Z,20.64
2018-07-21T06:11:51.336Z,20.68
2018-07-21T06:12:51.386Z,20.75
2018-07-21T06:13:51.310Z,20.66
2018-07-21T06:14:51.299Z,20.81
2018-07-21T06:15:51.303Z,20.76
2018-07-21T06:16:51.348Z,20.79
2018-07-21T06:17:51.256Z,20.97
2018-07-21T06:18:51.251Z,21.00
2018-07-21T06:19:51.200Z,20.94
2018-07-21T06:20:51.249Z,20.98
2018-07-21T06:21:51.228Z,21.01
2018-07-21T06:22:51.211Z,21.01
2018-07-21T06:23:51.182Z,21.05
2018-07-21T06:24:51.144Z,21.15
2018-07-21T06:25:51.205Z,21.19
2018-07-21T06:26:51.160Z,21.28
2018-07-21T06:27:51.157Z,21.22
2018-07-21T06:28:51.135Z,21.26
2018-07-21T06:29:51.129Z,21.27
2018-07-21T06:30:51.182Z,21.40
2018-07-21T06:31:51.128Z,21.43
2018-07-21T06:32:51.109Z,21.46
2018-07-21T06:33:51.102Z,21.52
2018-07-21T06:34:51.067Z,21.67
2018-07-21T06:35:51.101Z,21.85
2018-07-21T06:36:51.080Z,21.85
2018-07-21T06:37:51.039Z,21.93
2018-07-21T06:38:51.041Z,21.99
2018-07-21T06:39:50.983Z,22.08
2018-07-21T06:40:51.013Z,22.09
2018-07-21T06:41:51.048Z,22.23
2018-07-21T06:42:50.946Z,22.27
2018-07-21T06:43:51.010Z,22.38
2018-07-21T06:44:50.975Z,22.52
2018-07-21T06:45:51.032Z,22.61
2018-07-21T06:46:50.976Z,22.63
2018-07-21T06:47:50.950Z,23.04
2018-07-21T06:48:50.940Z,23.59
2018-07-21T06:49:50.865Z,23.93
2018-07-21T06:50:50.943Z,24.00
2018-07-21T06:51:50.924Z,23.84
2018-07-21T06:52:50.908Z,23.63
2018-07-21T06:53:50.887Z,23.69
2018-07-21T06:54:50.822Z,23.86
2018-07-21T06:55:50.860Z,23.81
2018-07-21T06:56:50.860Z,23.97
2018-07-21T06:57:50.820Z,24.24
2018-07-21T06:58:50.817Z,24.37
2018-07-21T06:59:50.831Z,24.34
2018-07-21T07:00:50.799Z,24.31
2018-07-21T07:01:50.824Z,24.30
2018-07-21T07:02:50.789Z,24.48
2018-07-21T07:03:50.718Z,24.51
2018-07-21T07:04:50.753Z,24.59
2018-07-21T07:05:50.801Z,24.63
2018-07-21T07:06:50.757Z,24.75
2018-07-21T07:07:50.676Z,24.98
2018-07-21T07:08:50.708Z,24.92
2018-07-21T07:09:50.709Z,25.01
2018-07-21T07:10:50.686Z,25.34
2018-07-21T07:11:50.727Z,25.67
2018-07-21T07:12:50.664Z,25.89
2018-07-21T07:13:50.654Z,26.06
2018-07-21T07:14:50.652Z,26.17
2018-07-21T07:15:50.650Z,26.21
2018-07-21T07:16:50.644Z,26.20
2018-07-21T07:17:50.632Z,26.32
2018-07-21T07:18:50.604Z,26.34
2018-07-21T07:19:50.594Z,26.46
2018-07-21T07:20:50.581Z,26.47
2018-07-21T07:21:50.594Z,26.49
2018-07-21T07:22:50.558Z,26.68
2018-07-21T07:23:50.546Z,26.73
2018-07-21T07:24:50.542Z,26.83
2018-07-21T07:25:50.533Z,26.78
2018-07-21T07:26:50.536Z,26.96
2018-07-21T07:27:51.645Z,27.02
2018-07-21T07:28:50.495Z,27.02
2018-07-21T07:29:50.482Z,27.23
2018-07-21T07:30:50.476Z,27.43
2018-07-21T07:31:50.503Z,27.55
2018-07-21T07:32:50.476Z,27.55
2018-07-21T07:33:50.457Z,27.74
2018-07-21T07:34:50.427Z,27.86
2018-07-21T07:35:50.424Z,28.17
2018-07-21T07:36:50.408Z,28.57
2018-07-21T07:37:50.431Z,28.82
2018-07-21T07:38:50.385Z,28.88
2018-07-21T07:39:50.379Z,28.87
2018-07-21T07:40:50.378Z,29.23
2018-07-21T07:41:50.354Z,29.79
2018-07-21T07:42:50.381Z,29.97
2018-07-21T07:43:50.335Z,30.11
2018-07-21T07:44:50.321Z,29.81
2018-07-21T07:45:50.316Z,29.45
2018-07-21T07:46:50.309Z,29.48
2018-07-21T07:47:50.315Z,29.82
2018-07-21T07:48:50.235Z,29.82
2018-07-21T07:49:50.271Z,29.47
2018-07-21T07:50:50.224Z,28.91
2018-07-21T07:51:50.250Z,28.62
2018-07-21T07:52:50.274Z,28.43
2018-07-21T07:53:50.232Z,29.03
2018-07-21T07:54:50.221Z,29.58
2018-07-21T07:55:50.207Z,29.58
2018-07-21T07:56:50.159Z,29.37
2018-07-21T07:57:50.215Z,29.03
2018-07-21T07:58:50.199Z,28.57
2018-07-21T07:59:50.119Z,28.45
2018-07-21T08:00:50.159Z,28.85
2018-07-21T08:01:50.155Z,28.62
2018-07-21T08:02:50.318Z,28.58
2018-07-21T08:03:50.125Z,29.11
2018-07-21T08:04:50.112Z,29.11
2018-07-21T08:05:50.122Z,28.95
2018-07-21T08:06:50.090Z,28.79
2018-07-21T08:07:50.116Z,28.50
2018-07-21T08:08:50.030Z,28.57
2018-07-21T08:09:50.016Z,28.88
2018-07-21T08:10:50.055Z,29.25
2018-07-21T08:11:50.044Z,29.44
2018-07-21T08:12:50.132Z,28.88
2018-07-21T08:13:50.029Z,28.58
2018-07-21T08:14:50.007Z,28.32
2018-07-21T08:15:49.997Z,28.48
2018-07-21T08:16:49.948Z,29.15
2018-07-21T08:17:50.007Z,29.15
2018-07-21T08:18:49.965Z,28.77
2018-07-21T08:19:50.072Z,28.52
2018-07-21T08:20:49.945Z,28.21
2018-07-21T08:21:49.930Z,28.17
2018-07-21T08:22:49.950Z,28.83
2018-07-21T08:23:49.914Z,29.26
2018-07-21T08:24:49.910Z,29.66
2018-07-21T08:25:49.892Z,29.89
2018-07-21T08:26:49.889Z,30.42
2018-07-21T08:27:49.900Z,30.46
2018-07-21T08:28:49.860Z,30.96
2018-07-21T08:29:49.850Z,31.37
2018-07-21T08:30:49.834Z,31.71
2018-07-21T08:31:49.824Z,31.69
2018-07-21T08:32:49.840Z,31.65
2018-07-21T08:33:49.811Z,31.49
2018-07-21T08:34:49.798Z,31.40
2018-07-21T08:35:49.797Z,31.16
2018-07-21T08:36:49.779Z,31.28
2018-07-21T08:37:49.959Z,31.74
2018-07-21T08:38:49.776Z,31.62
2018-07-21T08:39:49.748Z,31.74
2018-07-21T08:40:49.739Z,31.99
2018-07-21T08:41:49.741Z,31.62
2018-07-21T08:42:49.744Z,31.37
2018-07-21T08:43:49.700Z,30.49
2018-07-21T08:44:49.689Z,29.81
2018-07-21T08:45:49.693Z,28.80
2018-07-21T08:46:49.632Z,28.76
2018-07-21T08:47:49.675Z,29.14
2018-07-21T08:48:49.725Z,29.30
2018-07-21T08:49:49.790Z,29.60
2018-07-21T08:50:49.632Z,29.66
2018-07-21T08:51:49.616Z,29.32
2018-07-21T08:52:49.615Z,28.82
2018-07-21T08:53:49.972Z,28.48
2018-07-21T08:54:49.586Z,28.38
2018-07-21T08:55:49.580Z,28.55
2018-07-21T08:56:49.574Z,28.61
2018-07-21T08:57:49.560Z,28.88
2018-07-21T08:58:49.571Z,29.03
2018-07-21T08:59:49.542Z,29.20
2018-07-21T09:00:49.541Z,29.27
2018-07-21T09:01:49.516Z,29.33
2018-07-21T09:02:49.510Z,29.35
2018-07-21T09:03:49.519Z,29.41
2018-07-21T09:04:49.481Z,29.49
2018-07-21T09:05:49.513Z,29.48
2018-07-21T09:06:49.463Z,29.21
2018-07-21T09:07:49.446Z,28.77
2018-07-21T09:08:49.469Z,28.69
2018-07-21T09:09:49.436Z,28.82
2018-07-21T09:10:49.422Z,28.77
2018-07-21T09:11:49.412Z,28.64
2018-07-21T09:12:49.399Z,28.72
2018-07-21T09:13:49.413Z,28.64
2018-07-21T09:14:49.374Z,28.64
2018-07-21T09:15:49.368Z,28.46
2018-07-21T09:16:49.361Z,28.39
2018-07-21T09:17:49.348Z,28.20
2018-07-21T09:18:49.361Z,28.15
2018-07-21T09:19:49.323Z,28.18
2018-07-21T09:20:49.310Z,28.36
2018-07-21T09:21:49.304Z,28.32
2018-07-21T09:22:49.297Z,28.50
2018-07-21T09:23:49.313Z,28.45
2018-07-21T09:24:49.271Z,28.62
2018-07-21T09:25:49.267Z,28.80
2018-07-21T09:26:49.246Z,28.82
2018-07-21T09:27:49.237Z,28.74
2018-07-21T09:28:49.255Z,28.80
2018-07-21T09:29:49.175Z,28.82
2018-07-21T09:30:49.219Z,29.14
2018-07-21T09:31:49.205Z,29.11
2018-07-21T09:32:49.188Z,29.26
2018-07-21T09:33:49.217Z,29.20
2018-07-21T09:34:49.167Z,29.33
2018-07-21T09:35:49.160Z,29.44
2018-07-21T09:36:49.147Z,29.52
2018-07-21T09:37:49.096Z,29.52
2018-07-21T09:38:49.147Z,29.52
2018-07-21T09:39:49.124Z,29.57
2018-07-21T09:40:49.099Z,29.58
2018-07-21T09:41:49.102Z,29.81
2018-07-21T09:42:49.079Z,29.92
2018-07-21T09:43:49.105Z,29.99
2018-07-21T09:44:49.055Z,29.95
2018-07-21T09:45:49.061Z,29.74
2018-07-21T09:46:49.039Z,29.66
2018-07-21T09:47:48.998Z,29.36
2018-07-21T09:48:49.018Z,29.00
2018-07-21T09:49:49.008Z,28.77
2018-07-21T09:50:49.001Z,28.80
2018-07-21T09:51:48.994Z,28.82
2018-07-21T09:52:48.940Z,29.07
2018-07-21T09:53:48.988Z,29.15
2018-07-21T09:54:48.961Z,29.23
2018-07-21T09:55:49.078Z,29.33
2018-07-21T09:56:48.930Z,29.47
2018-07-21T09:57:48.924Z,29.39
2018-07-21T09:58:49.070Z,29.44
2018-07-21T09:59:48.904Z,29.41
2018-07-21T10:00:48.897Z,29.44
2018-07-21T10:01:48.879Z,29.47
2018-07-21T10:02:48.865Z,29.36
2018-07-21T10:03:48.888Z,29.37
2018-07-21T10:04:48.806Z,29.41
2018-07-21T10:05:48.790Z,29.39
2018-07-21T10:06:48.834Z,29.35
2018-07-21T10:07:48.812Z,29.36
2018-07-21T10:08:48.873Z,29.30
2018-07-21T10:09:48.803Z,29.17
2018-07-21T10:10:48.793Z,29.15
2018-07-21T10:11:48.732Z,28.89
2018-07-21T10:12:48.770Z,28.67
2018-07-21T10:13:48.934Z,28.51
2018-07-21T10:14:48.742Z,28.50
2018-07-21T10:15:48.733Z,28.36
2018-07-21T10:16:48.720Z,28.32
2018-07-21T10:17:48.707Z,28.17
2018-07-21T10:18:48.704Z,28.18
2018-07-21T10:19:48.715Z,28.28
2018-07-21T10:20:48.681Z,28.28
2018-07-21T10:21:48.681Z,28.36
2018-07-21T10:22:48.660Z,28.35
2018-07-21T10:23:48.646Z,28.51
2018-07-21T10:24:48.660Z,28.60
2018-07-21T10:25:48.628Z,28.55
2018-07-21T10:26:48.622Z,28.54
2018-07-21T10:27:48.608Z,28.25
2018-07-21T10:28:48.599Z,28.25
2018-07-21T10:29:48.596Z,28.36
2018-07-21T10:30:48.574Z,28.25
2018-07-21T10:31:48.577Z,27.90
2018-07-21T10:32:48.518Z,27.87
2018-07-21T10:33:48.548Z,27.90
2018-07-21T10:34:48.521Z,28.02
2018-07-21T10:35:48.529Z,28.02
2018-07-21T10:36:48.519Z,28.11
2018-07-21T10:37:48.519Z,28.20
2018-07-21T10:38:48.501Z,28.35
2018-07-21T10:39:48.507Z,28.36
2018-07-21T10:40:48.480Z,28.33
2018-07-21T10:41:48.461Z,28.32
2018-07-21T10:42:48.452Z,28.39
2018-07-21T10:43:48.446Z,28.40
2018-07-21T10:44:48.458Z,28.43
2018-07-21T10:45:48.418Z,28.55
2018-07-21T10:46:48.423Z,28.13
2018-07-21T10:47:48.405Z,27.99
2018-07-21T10:48:48.383Z,28.08
2018-07-21T10:49:48.396Z,28.28
2018-07-21T10:50:48.388Z,28.15
2018-07-21T10:51:48.316Z,28.21
2018-07-21T10:52:48.341Z,28.15
2018-07-21T10:53:48.297Z,28.14
2018-07-21T10:54:48.351Z,27.90
2018-07-21T10:55:48.309Z,27.86
2018-07-21T10:56:48.309Z,27.95
2018-07-21T10:57:48.354Z,27.86
2018-07-21T10:58:48.291Z,27.83
2018-07-21T10:59:48.365Z,27.83
2018-07-21T11:00:48.268Z,27.90
2018-07-21T11:01:48.233Z,28.09
2018-07-21T11:02:48.246Z,28.15
2018-07-21T11:03:48.198Z,28.21
2018-07-21T11:04:48.243Z,28.28
2018-07-21T11:05:48.218Z,28.35
2018-07-21T11:06:55.731Z,28.39
2018-07-21T11:07:48.193Z,28.27
2018-07-21T11:08:48.148Z,28.20
2018-07-21T11:09:48.195Z,28.14
2018-07-21T11:10:48.157Z,28.24
2018-07-21T11:11:48.100Z,28.21
2018-07-21T11:12:48.138Z,28.43
2018-07-21T11:13:48.135Z,28.40
2018-07-21T11:14:48.143Z,28.42
2018-07-21T11:15:48.120Z,28.40
2018-07-21T11:16:48.090Z,28.46
2018-07-21T11:17:48.078Z,28.57
2018-07-21T11:18:48.071Z,28.58
2018-07-21T11:19:48.090Z,28.64
2018-07-21T11:20:48.084Z,28.72
2018-07-21T11:21:48.044Z,28.79
2018-07-21T11:22:48.039Z,28.95
2018-07-21T11:23:48.033Z,29.08
2018-07-21T11:24:48.049Z,29.11
2018-07-21T11:25:48.003Z,29.12
2018-07-21T11:26:47.984Z,29.12
2018-07-21T11:27:48.003Z,29.12
2018-07-21T11:28:47.966Z,29.20
2018-07-21T11:29:47.984Z,29.11
2018-07-21T11:30:47.945Z,29.02
2018-07-21T11:31:47.948Z,28.77
2018-07-21T11:32:47.923Z,28.72
2018-07-21T11:33:47.865Z,28.57
2018-07-21T11:34:47.932Z,28.57
2018-07-21T11:35:48.054Z,28.54
2018-07-21T11:36:47.888Z,28.58
2018-07-21T11:37:47.871Z,28.72
2018-07-21T11:38:47.852Z,28.91
2018-07-21T11:39:47.872Z,29.08
2018-07-21T11:40:47.843Z,29.00
2018-07-21T11:41:47.831Z,28.98
2018-07-21T11:42:47.816Z,29.08
2018-07-21T11:43:47.810Z,29.20
2018-07-21T11:44:47.978Z,29.15
2018-07-21T11:45:47.788Z,29.10
2018-07-21T11:46:47.800Z,29.12
2018-07-21T11:47:47.769Z,29.11
2018-07-21T11:48:47.714Z,29.07
2018-07-21T11:49:47.728Z,29.02
2018-07-21T11:50:47.694Z,28.82
2018-07-21T11:51:47.720Z,28.74
2018-07-21T11:52:47.717Z,28.73
2018-07-21T11:53:47.704Z,28.74
2018-07-21T11:54:47.739Z,28.80
2018-07-21T11:55:47.720Z,28.88
2018-07-21T11:56:47.689Z,29.02
2018-07-21T11:57:47.659Z,29.08
2018-07-21T11:58:47.669Z,29.12
2018-07-21T11:59:47.645Z,29.26
2018-07-21T12:00:47.667Z,29.35
2018-07-21T12:01:47.632Z,29.42
2018-07-21T12:02:47.614Z,29.51
2018-07-21T12:03:47.601Z,29.62
2018-07-21T12:04:47.589Z,29.54
2018-07-21T12:05:47.648Z,29.35
2018-07-21T12:06:47.563Z,29.17
2018-07-21T12:07:47.563Z,29.20
2018-07-21T12:08:47.544Z,29.30
2018-07-21T12:09:47.547Z,29.33
2018-07-21T12:10:47.557Z,29.48
2018-07-21T12:11:47.521Z,29.36
2018-07-21T12:12:47.508Z,29.39
2018-07-21T12:13:47.496Z,29.37
2018-07-21T12:14:47.483Z,29.35
2018-07-21T12:15:47.503Z,29.41
2018-07-21T12:16:47.422Z,29.42
2018-07-21T12:17:47.412Z,29.41
2018-07-21T12:18:47.442Z,29.36
2018-07-21T12:19:47.428Z,29.29
2018-07-21T12:20:47.442Z,29.30
2018-07-21T12:21:47.412Z,29.29
2018-07-21T12:22:47.354Z,29.41
2018-07-21T12:23:47.390Z,29.55
2018-07-21T12:24:47.378Z,29.57
2018-07-21T12:25:47.423Z,29.79
2018-07-21T12:26:47.358Z,29.94
2018-07-21T12:27:47.297Z,29.92
2018-07-21T12:28:47.297Z,30.08
2018-07-21T12:29:47.337Z,30.13
2018-07-21T12:30:47.333Z,30.13
2018-07-21T12:31:47.255Z,30.26
2018-07-21T12:32:47.288Z,30.04
2018-07-21T12:33:47.339Z,29.95
2018-07-21T12:34:47.270Z,29.63
2018-07-21T12:35:47.294Z,29.52
2018-07-21T12:36:47.246Z,29.42
2018-07-21T12:37:47.239Z,29.58
2018-07-21T12:38:47.228Z,29.64
2018-07-21T12:39:47.233Z,29.64
2018-07-21T12:40:47.233Z,29.67
2018-07-21T12:41:47.316Z,29.54
2018-07-21T12:42:47.188Z,29.55
2018-07-21T12:43:47.291Z,29.55
2018-07-21T12:44:47.185Z,29.49
2018-07-21T12:45:47.204Z,29.58
2018-07-21T12:46:47.154Z,29.63
2018-07-21T12:47:47.146Z,29.67
2018-07-21T12:48:47.120Z,29.49
2018-07-21T12:49:47.095Z,29.39
2018-07-21T12:50:47.121Z,29.33
2018-07-21T12:51:47.085Z,29.29
2018-07-21T12:52:47.105Z,29.33